Flight Track Log - Related Links

Times and Time Zones

All times are in EDT time to prevent confusion due to time zone crossing. See the ASQ4577 flight status page for this flight to view local times or setup timezone preferences in your user account.

Time Position Orientation Groundspeed Altitude Reporting Facility
EDT Latitude Longitude Course Direction KTS MPH feet Rate Location/Type
Thu 07:59:35 PM 41.4217 -81.8347 23° Northeast 173 199 1,700  Level Cleveland Center
Thu 07:59:53 PM 41.4361 -81.8267 23° Northeast 173 199 2,300 1,613 Climbing Cleveland Center
Thu 08:01:34 PM 41.5267 -81.7453 34° Northeast 277 319 4,900 1,938 Climbing Cleveland Center
Thu 08:02:34 PM 41.5878 -81.6797 39° Northeast 272 313 7,500 2,450 Climbing Cleveland Center
Thu 08:03:34 PM 41.6508 -81.6169 37° Northeast 277 319 9,800 1,950 Climbing Cleveland Center
Thu 08:04:34 PM 41.7203 -81.5400 40° Northeast 288 331 11,400 1,650 Climbing Cleveland Center
Thu 08:05:34 PM 41.7506 -81.4236 71° East 315 362 13,100 1,600 Climbing Cleveland Center
Thu 08:06:34 PM 41.7681 -81.3014 79° East 320 368 14,600 1,450 Climbing Cleveland Center
Thu 08:07:34 PM 41.7897 -81.1681 78° East 346 398 16,000 1,450 Climbing Cleveland Center
Thu 08:08:34 PM 41.8131 -81.0372 77° East 357 411 17,500 1,650 Climbing Cleveland Center
Thu 08:09:34 PM 41.8344 -80.9036 78° East 357 411 19,300 1,850 Climbing Cleveland Center
Thu 08:10:34 PM 41.8556 -80.7756 77° East 357 411 21,200 1,850 Climbing Cleveland Center
Thu 08:11:34 PM 41.8767 -80.6444 78° East 357 411 23,000 1,600 Climbing Cleveland Center
Thu 08:12:34 PM 41.8953 -80.5275 78° East 351 404 24,400 1,400 Climbing Cleveland Center
Thu 08:13:34 PM 41.9139 -80.3989 79° East 356 410 25,800 1,250 Climbing Cleveland Center
Thu 08:14:34 PM 41.9367 -80.2650 77° East 356 410 26,900 1,100 Climbing Cleveland Center
Thu 08:15:34 PM 41.9569 -80.1253 79° East 361 415 28,000 1,100 Climbing Cleveland Center
Thu 08:16:34 PM 41.9814 -79.9742 78° East 373 429 29,100 900 Climbing Cleveland Center
Thu 08:17:34 PM 42.0033 -79.8344 78° East 373 429 29,800 600 Climbing Cleveland Center
Thu 08:18:34 PM 42.0253 -79.6858 79° East 378 435 30,300 550 Climbing Cleveland Center
Thu 08:19:34 PM 42.0469 -79.5292 79° East 403 464 30,900 350 Climbing Cleveland Center
Thu 08:20:34 PM 42.0703 -79.3692 79° East 418 481 31,000 50 Climbing Cleveland Center
Thu 08:21:34 PM 42.0956 -79.2064 78° East 430 495 31,000  Level Cleveland Center
Thu 08:22:34 PM 42.1206 -79.0436 78° East 435 501 31,000  Level Cleveland Center
Thu 08:23:34 PM 42.1433 -78.8750 80° East 440 506 31,000  Level Cleveland Center
Thu 08:24:34 PM 42.1678 -78.7089 79° East 450 518 31,000  Level Cleveland Center
Thu 08:25:34 PM 42.1903 -78.5569 79° East 450 518 31,000  Level Cleveland Center
Thu 08:26:34 PM 42.2122 -78.3908 80° East 450 518 31,000  Level Cleveland Center
Thu 08:27:34 PM 42.2358 -78.2217 79° East 450 518 31,000  Level Cleveland Center
Thu 08:28:34 PM 42.2594 -78.0553 79° East 450 518 31,000  Level Cleveland Center
Thu 08:29:34 PM 42.2806 -77.8861 80° East 450 518 31,000  Level Cleveland Center
Thu 08:30:34 PM 42.3036 -77.7167 80° East 450 518 31,000  Level Cleveland Center
Thu 08:31:34 PM 42.3264 -77.5469 80° East 450 518 31,000 -144 Level Cleveland Center
Thu 08:34:03 PM 42.3814 -77.1094 80° East 469 540 30,500 -402 Descending Boston Center
Thu 08:35:03 PM 42.4022 -76.9592 79° East 459 528 29,600 -750 Descending Boston Center
Thu 08:36:03 PM 42.4211 -76.7917 81° East 459 528 29,000 -300 Descending Boston Center
Thu 08:37:03 PM 42.4419 -76.6242 80° East 454 522 29,000  Level Boston Center
Thu 08:38:03 PM 42.4628 -76.4567 80° East 454 522 29,000  Level Boston Center
Thu 08:39:03 PM 42.4831 -76.2892 81° East 454 522 29,000 -500 Level Boston Center
Thu 08:40:03 PM 42.5061 -76.0989 81° East 454 522 28,000 -500 Descending Boston Center
Thu 08:41:03 PM 42.5239 -75.9308 82° East 454 522 28,000  Level Boston Center
Thu 08:42:03 PM 42.5456 -75.7631 80° East 454 522 28,000 -200 Level Boston Center
Thu 08:43:03 PM 42.5631 -75.5919 82° East 459 528 27,600 -700 Descending Boston Center
Thu 08:44:03 PM 42.6006 -75.4358 72° East 439 505 26,600 -1,000 Descending Boston Center
Thu 08:45:03 PM 42.6564 -75.2972 61° Northeast 433 498 25,600 -1,850 Descending Boston Center
Thu 08:46:03 PM 42.7117 -75.1642 60° Northeast 421 484 22,900 -3,000 Descending Boston Center
Thu 08:47:03 PM 42.7647 -75.0308 62° Northeast 399 459 19,600 -3,300 Descending Boston Center
Thu 08:48:03 PM 42.8175 -74.9056 60° Northeast 387 445 16,300 -2,950 Descending Boston Center
Thu 08:49:03 PM 42.8164 -74.7667 91° East 363 418 13,700 -2,412 Descending Boston Center
Thu 08:49:40 PM 42.8078 -74.6817 98° East 364 419 12,400 -1,900 Descending Boston Center
Thu 08:50:03 PM 42.8025 -74.6306 98° East 368 423 11,800 -1,527 Descending Boston Center
Thu 08:50:35 PM 42.7994 -74.5625 93° East 367 422 11,000 -800 Descending Boston Center
Thu 08:51:03 PM 42.7925 -74.4942 98° East 368 423 11,000  Level Boston Center
Thu 08:51:29 PM 42.7892 -74.4433 95° East 352 405 11,000  Level Boston Center
Thu 08:52:03 PM 42.7842 -74.3639 95° East 355 409 11,000  Level Boston Center
Thu 08:52:30 PM 42.7811 -74.3100 94° East 349 402 11,000  Level Boston Center
Thu 08:53:03 PM 42.7761 -74.2306 95° East 355 409 11,000 -700 Level Boston Center
Thu 08:53:30 PM 42.7831 -74.1800 79° East 309 356 10,300 -2,100 Descending Boston Center
Thu 08:54:03 PM 42.8025 -74.1353 59° Northeast 286 329 8,900 -2,951 Descending Boston Center
Thu 08:54:31 PM 42.8281 -74.0992 46° Northeast 256 295 7,300 -3,100 Descending Boston Center
Thu 08:55:03 PM 42.8536 -74.0628 46° Northeast 262 302 5,800 -2,754 Descending Boston Center
Thu 08:55:32 PM 42.8647 -74.0208 70° East 258 297 4,500 -1,900 Descending Boston Center
Thu 08:56:03 PM 42.8717 -73.9700 79° East 250 288 3,900 -1,100 Descending Boston Center
Thu 08:56:32 PM 42.8783 -73.9275 78° East 234 269 3,400 -1,100 Descending Boston Center
Thu 08:57:03 PM 42.8831 -73.8822 82° East 239 275 2,800 -1,082 Descending Boston Center
Thu 08:57:33 PM 42.8878 -73.8400 81° East 225 259 2,300 -700 Descending Boston Center
Thu 08:58:03 PM 42.8692 -73.8197 141° Southeast 205 236 2,100 -393 Descending Boston Center
Thu 08:58:34 PM 42.8403 -73.8133 171° South 181 208 1,900 -200 Descending Boston Center
Thu 08:59:03 PM 42.8386 -73.7736 93° East 205 236 1,900 -818 Level Boston Center
Thu 08:59:40 PM 42.7922 -73.8067 208° Southwest 131 151 1,000 -1,459 Descending Boston Center

Login

Don't have an account? Register now (free) for customized features, flight alerts, and more!